Terminal Aerodrome Forecast
Issued by NWS

Home | Current Version | Previous Version | Text Only | Print | Product List | Glossary On
Versions: 1 2 3 4 5 6 7 8 9 10 11 12 13 14 15 16 17 18 19 20 21
000
FTUS41 KCAR 232320
TAFFVE
TAF
KFVE 232320Z 2400/2424 32014G24KT P6SM SKC
     FM240130 29006KT P6SM FEW250
     FM241200 18006KT P6SM BKN120 OVC180
     FM241600 19010G17KT P6SM VCSH OVC050
     FM241800 19012G20KT 3SM -SHSN BR OVC018=

USA.gov is the U.S. government's official web portal to all federal, state and local government web resources and services.